Clarksburg, Ohio
Current Conditions -  °F | °C
As of 1:54 PM on Monday 20 Oct 2014 (Local Time) from KRZT Reporting Station
Scattered Clouds Scattered Clouds  
Wind Chill: 61°   Ceiling: Unl
Heat Index: 61°   Visibility: 10mi
Dew Point: 41°   Wind: 9mph
Humidity: 48%   Direction: 200°SSW
Pressure: 29.9"   Gusts: NA
Location:  39.51°N, 83.15°W
Report Text: KRZT 201754Z AUTO 20008KT 10SM SCT110 16/05 A2990 RMK AO2
Loading
Personal Weather Stations






























Interactive Weather Map
Tropical Storm Tracking
New forecast layout! Learn more

10-Day Weather Forecast

Advertisements
Track Severe Weather on mobile